Green Hill, Rhode Island
Current Conditions -  °F | °C
As of 3:53 PM on Thursday 23 Oct 2014 (Local Time) from KWST Reporting Station
Overcast Overcast  
Wind Chill: 58°   Ceiling: 1600
Heat Index: 58°   Visibility: 10mi
Dew Point: 51°   Wind: 14mph
Humidity: 78%   Direction: 350°N
Pressure: 29.55"   Gusts: 23mph
Location:  41.4261°N, 71.5353°W
Report Text: KWST 231953Z AUTO 35012G20KT 10SM OVC016 14/11 A2955 RMK AO2 SLP006 T01440106
Loading
Personal Weather Stations






























Interactive Weather Map
Tropical Storm Tracking
New forecast layout! Learn more

10-Day Weather Forecast

Advertisements
Track Severe Weather on mobile